Pagina principale
METAR-TAF:

METAR-TAF

Aeroporti :

Ísafjörður, Islanda

latitudine: 66-03-29N, longitudine: 23-08-07W, altezza: 2 m

Osservazione

Il bollettino è stato emesso 3 ore e 29 minuti fa, alle 16:00 UTC
Vento 3 kt da sud/sud-est
Temperature -1°C
Umidità 80%
Pressione 986 hPa
Visibilità 10 km o più
Poco nuvoloso ad un'altezza di 2000 ft
Nubi sparse ad un'altezza di 3000 ft

METAR: BIIS 241600Z 16003KT 9999 FEW020 SCT030 M01/M04 Q0986

Ora: 19:29 (19:29 UTC)

Previsione

Il bollettino è stato emesso 3 ore e 21 minuti fa, alle 16:08 UTC
Previsione valida dal 24 alle 17 UTC al 25 alle 02 UTC
Vento 5 kt da sud
Visibilità 10 km o più
Nubi sparse ad un'altezza di 2000 ft
Nuvoloso ad un'altezza di 3000 ft
rovesci di neve
Temporaneamente
dal 24 alle 17 UTC al 25 alle 02 UTC
Visibilità: 2000 m
Nuvoloso ad un'altezza di 1000 ft, Cumulonembo.
rovesci di neve

TAF: BIIS 241608Z 2417/2502 17005KT 9999 -SHSN SCT020 BKN030 TEMPO 2417/2502 2000 SHSN BKN010CB

Osservazioni e previsioni meteorologiche di più di 4000 aeroporti (messaggi METAR e TAF).

Le stazioni disponibili sono rappresentate dai dischi gialli e rossi sulla carta.

Puntare il mouse per vedere il nome della stazione.

Clicca sopra per visualizzare le osservazioni e previsioni meteorologiche.

Per cambiare la mappa : fare clic sui pulsanti verdi con una croce nera per ingrandire, il pulsante verde con un trattino per diminuire, o sulla freccia verde per le mappe adiacenti.


METAR-TAF: